sensor_id;sensor_type;location;lat;lon;timestamp;pressure;altitude;pressure_sealevel;temperature;humidity
26436;BME280;15351;52.408;16.826;2023-04-24T00:01:11;99778.92;;;15.88;74.60
26436;BME280;15351;52.408;16.826;2023-04-24T00:03:42;99774.19;;;15.89;74.67
26436;BME280;15351;52.408;16.826;2023-04-24T00:06:18;99777.35;;;15.90;75.06
26436;BME280;15351;52.408;16.826;2023-04-24T00:08:44;99772.05;;;15.92;74.90
26436;BME280;15351;52.408;16.826;2023-04-24T00:11:14;99774.29;;;15.93;74.91
26436;BME280;15351;52.408;16.826;2023-04-24T00:13:41;99767.55;;;15.94;75.10
26436;BME280;15351;52.408;16.826;2023-04-24T00:16:08;99766.32;;;15.97;75.10
26436;BME280;15351;52.408;16.826;2023-04-24T00:18:34;99766.20;;;15.97;74.90
26436;BME280;15351;52.408;16.826;2023-04-24T00:21:09;99775.56;;;16.03;74.97
26436;BME280;15351;52.408;16.826;2023-04-24T00:23:36;99774.05;;;16.05;74.66
26436;BME280;15351;52.408;16.826;2023-04-24T00:26:06;99770.83;;;16.05;74.43
26436;BME280;15351;52.408;16.826;2023-04-24T00:28:59;99764.86;;;16.03;74.33
26436;BME280;15351;52.408;16.826;2023-04-24T00:31:49;99755.55;;;16.02;74.51
26436;BME280;15351;52.408;16.826;2023-04-24T00:34:29;99756.25;;;16.05;74.39
26436;BME280;15351;52.408;16.826;2023-04-24T00:37:15;99756.96;;;16.08;74.17
26436;BME280;15351;52.408;16.826;2023-04-24T00:39:44;99748.97;;;16.08;74.05
26436;BME280;15351;52.408;16.826;2023-04-24T00:42:34;99746.33;;;16.08;74.01
26436;BME280;15351;52.408;16.826;2023-04-24T00:45:22;99746.89;;;16.09;73.99
26436;BME280;15351;52.408;16.826;2023-04-24T00:47:56;99751.77;;;16.08;74.10
26436;BME280;15351;52.408;16.826;2023-04-24T00:50:35;99755.50;;;16.08;73.84
26436;BME280;15351;52.408;16.826;2023-04-24T00:53:47;99752.79;;;16.04;73.96
26436;BME280;15351;52.408;16.826;2023-04-24T00:56:25;99759.29;;;16.02;73.79
26436;BME280;15351;52.408;16.826;2023-04-24T00:59:07;99757.30;;;15.99;74.00
26436;BME280;15351;52.408;16.826;2023-04-24T01:01:37;99751.95;;;15.97;74.15
26436;BME280;15351;52.408;16.826;2023-04-24T01:04:19;99748.58;;;15.97;74.68
26436;BME280;15351;52.408;16.826;2023-04-24T01:07:35;99747.34;;;15.99;74.88
26436;BME280;15351;52.408;16.826;2023-04-24T01:10:03;99737.48;;;15.97;75.05
26436;BME280;15351;52.408;16.826;2023-04-24T01:12:29;99727.16;;;15.99;75.58
26436;BME280;15351;52.408;16.826;2023-04-24T01:14:56;99729.79;;;16.00;75.72
26436;BME280;15351;52.408;16.826;2023-04-24T01:17:26;99725.75;;;16.02;76.18
26436;BME280;15351;52.408;16.826;2023-04-24T01:20:12;99722.57;;;16.02;76.30
26436;BME280;15351;52.408;16.826;2023-04-24T01:22:55;99721.52;;;16.05;76.56
26436;BME280;15351;52.408;16.826;2023-04-24T01:26:18;99712.56;;;16.11;76.48
26436;BME280;15351;52.408;16.826;2023-04-24T01:32:53;99709.53;;;16.16;76.16
26436;BME280;15351;52.408;16.826;2023-04-24T01:35:23;99707.98;;;16.13;76.34
26436;BME280;15351;52.408;16.826;2023-04-24T01:41:41;99707.99;;;16.10;76.50
26436;BME280;15351;52.408;16.826;2023-04-24T01:44:10;99714.67;;;16.09;76.47
26436;BME280;15351;52.408;16.826;2023-04-24T01:46:40;99712.67;;;16.04;76.56
26436;BME280;15351;52.408;16.826;2023-04-24T01:49:12;99702.09;;;15.99;76.73
26436;BME280;15351;52.408;16.826;2023-04-24T01:52:02;99703.09;;;15.99;76.79
26436;BME280;15351;52.408;16.826;2023-04-24T01:54:30;99706.98;;;16.03;76.98
26436;BME280;15351;52.408;16.826;2023-04-24T01:57:07;99712.03;;;16.01;76.66
26436;BME280;15351;52.408;16.826;2023-04-24T01:59:40;99710.02;;;15.97;76.92
26436;BME280;15351;52.408;16.826;2023-04-24T02:02:09;99708.98;;;15.97;76.64
26436;BME280;15351;52.408;16.826;2023-04-24T02:08:07;99703.53;;;15.96;77.17
26436;BME280;15351;52.408;16.826;2023-04-24T02:14:56;99694.00;;;15.96;76.80
26436;BME280;15351;52.408;16.826;2023-04-24T02:18:07;99690.14;;;15.94;77.04
26436;BME280;15351;52.408;16.826;2023-04-24T02:20:34;99682.13;;;15.92;77.00
26436;BME280;15351;52.408;16.826;2023-04-24T02:23:24;99681.08;;;15.96;77.14
26436;BME280;15351;52.408;16.826;2023-04-24T02:25:52;99676.33;;;15.95;76.90
26436;BME280;15351;52.408;16.826;2023-04-24T02:28:20;99673.91;;;15.95;76.89
26436;BME280;15351;52.408;16.826;2023-04-24T02:30:50;99668.27;;;15.99;76.78
26436;BME280;15351;52.408;16.826;2023-04-24T02:33:19;99663.29;;;15.98;76.32
26436;BME280;15351;52.408;16.826;2023-04-24T02:36:15;99658.34;;;15.95;76.46
26436;BME280;15351;52.408;16.826;2023-04-24T02:38:45;99659.45;;;15.97;76.72
26436;BME280;15351;52.408;16.826;2023-04-24T02:41:24;99659.77;;;15.99;76.63
26436;BME280;15351;52.408;16.826;2023-04-24T02:44:14;99659.51;;;15.96;76.41
26436;BME280;15351;52.408;16.826;2023-04-24T02:47:04;99653.45;;;15.95;76.50
26436;BME280;15351;52.408;16.826;2023-04-24T02:49:38;99653.14;;;15.97;76.43
26436;BME280;15351;52.408;16.826;2023-04-24T02:52:05;99650.96;;;15.96;76.52
26436;BME280;15351;52.408;16.826;2023-04-24T02:55:01;99648.02;;;15.95;76.64
26436;BME280;15351;52.408;16.826;2023-04-24T03:01:05;99645.78;;;16.02;76.12
26436;BME280;15351;52.408;16.826;2023-04-24T03:03:32;99639.20;;;15.99;76.02
26436;BME280;15351;52.408;16.826;2023-04-24T03:06:11;99634.08;;;16.01;76.12
26436;BME280;15351;52.408;16.826;2023-04-24T03:08:41;99630.65;;;15.97;76.01
26436;BME280;15351;52.408;16.826;2023-04-24T03:11:07;99630.00;;;15.92;76.11
26436;BME280;15351;52.408;16.826;2023-04-24T03:13:45;99627.29;;;15.88;76.12
26436;BME280;15351;52.408;16.826;2023-04-24T03:16:11;99625.17;;;15.87;76.28
26436;BME280;15351;52.408;16.826;2023-04-24T03:18:38;99622.33;;;15.84;76.13
26436;BME280;15351;52.408;16.826;2023-04-24T03:21:27;99622.25;;;15.83;76.19
26436;BME280;15351;52.408;16.826;2023-04-24T03:23:57;99616.04;;;15.85;76.39
26436;BME280;15351;52.408;16.826;2023-04-24T03:26:33;99614.93;;;15.86;76.49
26436;BME280;15351;52.408;16.826;2023-04-24T03:29:47;99614.05;;;15.87;76.63
26436;BME280;15351;52.408;16.826;2023-04-24T03:32:17;99606.70;;;15.82;76.21
26436;BME280;15351;52.408;16.826;2023-04-24T03:34:58;99605.64;;;15.81;76.59
26436;BME280;15351;52.408;16.826;2023-04-24T03:37:36;99602.83;;;15.81;76.65
26436;BME280;15351;52.408;16.826;2023-04-24T03:40:26;99600.11;;;15.80;76.70
26436;BME280;15351;52.408;16.826;2023-04-24T03:43:03;99588.39;;;15.79;76.74
26436;BME280;15351;52.408;16.826;2023-04-24T03:45:47;99581.98;;;15.80;76.81
26436;BME280;15351;52.408;16.826;2023-04-24T03:48:15;99578.40;;;15.80;76.63
26436;BME280;15351;52.408;16.826;2023-04-24T03:50:45;99586.98;;;15.83;76.46
26436;BME280;15351;52.408;16.826;2023-04-24T03:53:21;99589.43;;;15.81;76.40
26436;BME280;15351;52.408;16.826;2023-04-24T03:56:07;99590.91;;;15.78;76.50
26436;BME280;15351;52.408;16.826;2023-04-24T03:58:55;99593.75;;;15.79;76.31
26436;BME280;15351;52.408;16.826;2023-04-24T04:01:32;99595.83;;;15.77;76.09
26436;BME280;15351;52.408;16.826;2023-04-24T04:04:10;99588.88;;;15.68;75.98
26436;BME280;15351;52.408;16.826;2023-04-24T04:06:44;99596.73;;;15.70;76.08
26436;BME280;15351;52.408;16.826;2023-04-24T04:09:31;99598.61;;;15.70;76.19
26436;BME280;15351;52.408;16.826;2023-04-24T04:12:40;99603.71;;;15.69;75.90
26436;BME280;15351;52.408;16.826;2023-04-24T04:15:18;99603.00;;;15.70;76.24
26436;BME280;15351;52.408;16.826;2023-04-24T04:17:47;99604.33;;;15.74;76.62
26436;BME280;15351;52.408;16.826;2023-04-24T04:24:08;99601.40;;;15.80;76.37
26436;BME280;15351;52.408;16.826;2023-04-24T04:27:19;99591.36;;;15.79;76.66
26436;BME280;15351;52.408;16.826;2023-04-24T04:30:49;99586.89;;;15.83;76.87
26436;BME280;15351;52.408;16.826;2023-04-24T04:33:51;99589.45;;;15.88;76.60
26436;BME280;15351;52.408;16.826;2023-04-24T04:40:57;99583.91;;;15.90;76.20
26436;BME280;15351;52.408;16.826;2023-04-24T04:43:32;99580.95;;;15.85;75.96
26436;BME280;15351;52.408;16.826;2023-04-24T04:46:03;99585.30;;;15.83;75.92
26436;BME280;15351;52.408;16.826;2023-04-24T04:49:22;99586.79;;;15.82;75.83
26436;BME280;15351;52.408;16.826;2023-04-24T04:51:52;99580.67;;;15.78;75.55
26436;BME280;15351;52.408;16.826;2023-04-24T04:55:09;99580.19;;;15.76;75.66
26436;BME280;15351;52.408;16.826;2023-04-24T04:58:25;99573.23;;;15.76;75.79
26436;BME280;15351;52.408;16.826;2023-04-24T05:01:21;99578.94;;;15.74;75.68
26436;BME280;15351;52.408;16.826;2023-04-24T05:04:28;99578.42;;;15.71;75.79
26436;BME280;15351;52.408;16.826;2023-04-24T05:07:01;99574.95;;;15.68;75.85
26436;BME280;15351;52.408;16.826;2023-04-24T05:09:53;99568.76;;;15.63;75.89
26436;BME280;15351;52.408;16.826;2023-04-24T05:12:53;99576.56;;;15.67;75.87
26436;BME280;15351;52.408;16.826;2023-04-24T05:15:24;99579.19;;;15.68;75.81
26436;BME280;15351;52.408;16.826;2023-04-24T05:18:48;99581.56;;;15.69;76.13
26436;BME280;15351;52.408;16.826;2023-04-24T05:22:43;99580.25;;;15.72;76.08
26436;BME280;15351;52.408;16.826;2023-04-24T05:25:23;99572.55;;;15.82;75.96
26436;BME280;15351;52.408;16.826;2023-04-24T05:28:15;99573.69;;;15.84;75.66
26436;BME280;15351;52.408;16.826;2023-04-24T05:31:44;99574.70;;;15.81;75.59
26436;BME280;15351;52.408;16.826;2023-04-24T05:34:13;99578.85;;;15.84;75.91
26436;BME280;15351;52.408;16.826;2023-04-24T05:36:53;99583.44;;;15.85;75.56
26436;BME280;15351;52.408;16.826;2023-04-24T05:39:23;99586.60;;;15.86;75.99
26436;BME280;15351;52.408;16.826;2023-04-24T05:42:39;99584.33;;;15.87;75.82
26436;BME280;15351;52.408;16.826;2023-04-24T05:49:02;99589.17;;;15.87;75.85
26436;BME280;15351;52.408;16.826;2023-04-24T06:01:49;99579.16;;;16.01;76.14
26436;BME280;15351;52.408;16.826;2023-04-24T06:04:49;99579.25;;;16.02;75.81
26436;BME280;15351;52.408;16.826;2023-04-24T06:07:41;99575.87;;;15.99;75.68
26436;BME280;15351;52.408;16.826;2023-04-24T06:10:46;99587.48;;;16.02;75.51
26436;BME280;15351;52.408;16.826;2023-04-24T06:20:15;99578.77;;;16.14;75.42
26436;BME280;15351;52.408;16.826;2023-04-24T06:23:07;99577.92;;;16.10;75.10
26436;BME280;15351;52.408;16.826;2023-04-24T06:26:49;99582.34;;;16.10;75.39
26436;BME280;15351;52.408;16.826;2023-04-24T06:29:18;99581.30;;;16.13;75.20
26436;BME280;15351;52.408;16.826;2023-04-24T06:32:14;99579.20;;;16.12;75.32
26436;BME280;15351;52.408;16.826;2023-04-24T06:35:10;99578.48;;;16.06;74.95
26436;BME280;15351;52.408;16.826;2023-04-24T06:37:42;99587.48;;;16.09;75.32
26436;BME280;15351;52.408;16.826;2023-04-24T06:40:12;99586.04;;;16.04;75.59
26436;BME280;15351;52.408;16.826;2023-04-24T06:43:24;99583.86;;;15.97;76.05
26436;BME280;15351;52.408;16.826;2023-04-24T06:46:35;99577.30;;;15.96;76.60
26436;BME280;15351;52.408;16.826;2023-04-24T07:00:39;99577.47;;;16.36;77.37
26436;BME280;15351;52.408;16.826;2023-04-24T07:03:12;99577.55;;;16.49;77.17
26436;BME280;15351;52.408;16.826;2023-04-24T07:06:07;99579.20;;;16.60;77.00
26436;BME280;15351;52.408;16.826;2023-04-24T07:09:15;99570.97;;;16.66;76.52
26436;BME280;15351;52.408;16.826;2023-04-24T07:15:32;99576.61;;;16.67;74.80
26436;BME280;15351;52.408;16.826;2023-04-24T07:18:48;99576.34;;;16.61;75.26
26436;BME280;15351;52.408;16.826;2023-04-24T07:25:00;99585.09;;;16.64;74.72
26436;BME280;15351;52.408;16.826;2023-04-24T07:28:31;99582.91;;;16.62;74.52
26436;BME280;15351;52.408;16.826;2023-04-24T07:31:49;99587.17;;;16.60;74.77
26436;BME280;15351;52.408;16.826;2023-04-24T07:34:20;99583.81;;;16.57;74.93
26436;BME280;15351;52.408;16.826;2023-04-24T07:36:46;99580.73;;;16.58;75.16
26436;BME280;15351;52.408;16.826;2023-04-24T07:39:15;99583.73;;;16.62;75.04
26436;BME280;15351;52.408;16.826;2023-04-24T07:41:41;99582.77;;;16.63;74.92
26436;BME280;15351;52.408;16.826;2023-04-24T07:44:30;99583.92;;;16.68;75.40
26436;BME280;15351;52.408;16.826;2023-04-24T07:47:10;99580.19;;;16.79;75.74
26436;BME280;15351;52.408;16.826;2023-04-24T07:50:16;99582.54;;;16.90;75.99
26436;BME280;15351;52.408;16.826;2023-04-24T07:53:33;99580.41;;;17.02;75.87
26436;BME280;15351;52.408;16.826;2023-04-24T07:56:09;99584.44;;;17.12;75.12
26436;BME280;15351;52.408;16.826;2023-04-24T07:58:38;99580.67;;;17.20;74.68
26436;BME280;15351;52.408;16.826;2023-04-24T08:01:06;99579.52;;;17.19;74.09
26436;BME280;15351;52.408;16.826;2023-04-24T08:03:46;99581.33;;;17.19;73.98
26436;BME280;15351;52.408;16.826;2023-04-24T08:06:20;99585.33;;;17.22;73.32
26436;BME280;15351;52.408;16.826;2023-04-24T08:09:12;99589.36;;;17.20;72.85
26436;BME280;15351;52.408;16.826;2023-04-24T08:11:49;99591.78;;;17.14;73.17
26436;BME280;15351;52.408;16.826;2023-04-24T08:14:47;99600.57;;;17.13;72.98
26436;BME280;15351;52.408;16.826;2023-04-24T08:17:43;99596.02;;;17.05;72.28
26436;BME280;15351;52.408;16.826;2023-04-24T08:20:16;99594.65;;;17.03;72.41
26436;BME280;15351;52.408;16.826;2023-04-24T08:22:43;99598.23;;;17.04;72.85
26436;BME280;15351;52.408;16.826;2023-04-24T08:25:21;99596.51;;;17.03;72.72
26436;BME280;15351;52.408;16.826;2023-04-24T08:27:55;99595.75;;;17.09;73.05
26436;BME280;15351;52.408;16.826;2023-04-24T08:30:23;99596.91;;;17.09;72.61
26436;BME280;15351;52.408;16.826;2023-04-24T08:32:58;99597.28;;;17.09;72.42
26436;BME280;15351;52.408;16.826;2023-04-24T08:35:36;99598.67;;;17.08;72.10
26436;BME280;15351;52.408;16.826;2023-04-24T08:38:29;99595.41;;;17.11;72.37
26436;BME280;15351;52.408;16.826;2023-04-24T08:44:02;99589.38;;;17.35;72.29
26436;BME280;15351;52.408;16.826;2023-04-24T08:46:43;99588.25;;;17.49;72.12
26436;BME280;15351;52.408;16.826;2023-04-24T08:49:13;99597.97;;;17.57;71.62
26436;BME280;15351;52.408;16.826;2023-04-24T08:51:43;99588.25;;;17.62;71.38
26436;BME280;15351;52.408;16.826;2023-04-24T08:54:41;99593.77;;;17.65;70.93
26436;BME280;15351;52.408;16.826;2023-04-24T08:57:52;99594.82;;;17.67;70.57
26436;BME280;15351;52.408;16.826;2023-04-24T09:00:37;99594.68;;;17.68;70.27
26436;BME280;15351;52.408;16.826;2023-04-24T09:03:18;99596.27;;;17.69;70.56
26436;BME280;15351;52.408;16.826;2023-04-24T09:05:58;99597.17;;;17.69;70.45
26436;BME280;15351;52.408;16.826;2023-04-24T09:08:28;99596.86;;;17.70;70.14
26436;BME280;15351;52.408;16.826;2023-04-24T09:11:12;99594.98;;;17.75;70.26
26436;BME280;15351;52.408;16.826;2023-04-24T09:14:24;99598.42;;;17.90;70.34
26436;BME280;15351;52.408;16.826;2023-04-24T09:16:55;99593.22;;;18.06;70.16
26436;BME280;15351;52.408;16.826;2023-04-24T09:19:27;99588.55;;;18.23;70.15
26436;BME280;15351;52.408;16.826;2023-04-24T09:21:54;99593.98;;;18.32;69.37
26436;BME280;15351;52.408;16.826;2023-04-24T09:24:33;99591.07;;;18.34;68.97
26436;BME280;15351;52.408;16.826;2023-04-24T09:27:23;99588.92;;;18.36;68.99
26436;BME280;15351;52.408;16.826;2023-04-24T09:29:56;99586.82;;;18.41;68.58
26436;BME280;15351;52.408;16.826;2023-04-24T09:32:23;99587.48;;;18.53;68.63
26436;BME280;15351;52.408;16.826;2023-04-24T09:35:15;99585.98;;;18.70;68.61
26436;BME280;15351;52.408;16.826;2023-04-24T09:37:50;99585.16;;;18.84;67.99
26436;BME280;15351;52.408;16.826;2023-04-24T09:40:37;99591.82;;;18.88;67.55
26436;BME280;15351;52.408;16.826;2023-04-24T09:43:10;99590.66;;;18.88;66.78
26436;BME280;15351;52.408;16.826;2023-04-24T09:45:40;99596.33;;;18.83;66.38
26436;BME280;15351;52.408;16.826;2023-04-24T09:48:16;99593.72;;;18.77;66.25
26436;BME280;15351;52.408;16.826;2023-04-24T09:50:48;99590.95;;;18.76;66.37
26436;BME280;15351;52.408;16.826;2023-04-24T09:53:30;99587.33;;;18.75;66.56
26436;BME280;15351;52.408;16.826;2023-04-24T09:56:09;99585.23;;;18.74;67.06
26436;BME280;15351;52.408;16.826;2023-04-24T09:58:49;99585.96;;;18.79;66.70
26436;BME280;15351;52.408;16.826;2023-04-24T10:01:32;99585.02;;;18.80;66.49
26436;BME280;15351;52.408;16.826;2023-04-24T10:04:27;99582.41;;;18.81;67.00
26436;BME280;15351;52.408;16.826;2023-04-24T10:06:58;99579.70;;;18.87;66.93
26436;BME280;15351;52.408;16.826;2023-04-24T10:09:27;99586.17;;;18.92;66.65
26436;BME280;15351;52.408;16.826;2023-04-24T10:12:04;99587.73;;;18.90;66.74
26436;BME280;15351;52.408;16.826;2023-04-24T10:14:33;99592.02;;;18.84;66.43
26436;BME280;15351;52.408;16.826;2023-04-24T10:17:34;99586.30;;;18.79;66.70
26436;BME280;15351;52.408;16.826;2023-04-24T10:20:28;99582.26;;;18.79;66.69
26436;BME280;15351;52.408;16.826;2023-04-24T10:26:22;99587.74;;;18.90;66.64
26436;BME280;15351;52.408;16.826;2023-04-24T10:28:51;99589.06;;;18.87;66.38
26436;BME280;15351;52.408;16.826;2023-04-24T10:31:44;99589.87;;;18.90;66.38
26436;BME280;15351;52.408;16.826;2023-04-24T10:34:25;99593.16;;;18.92;66.06
26436;BME280;15351;52.408;16.826;2023-04-24T10:37:01;99596.96;;;18.89;65.99
26436;BME280;15351;52.408;16.826;2023-04-24T10:39:49;99594.60;;;18.88;65.98
26436;BME280;15351;52.408;16.826;2023-04-24T10:42:17;99590.83;;;18.94;65.88
26436;BME280;15351;52.408;16.826;2023-04-24T10:45:31;99590.70;;;19.09;66.30
26436;BME280;15351;52.408;16.826;2023-04-24T10:48:27;99592.11;;;19.33;66.00
26436;BME280;15351;52.408;16.826;2023-04-24T10:50:56;99593.52;;;19.42;64.78
26436;BME280;15351;52.408;16.826;2023-04-24T10:53:37;99594.50;;;19.39;64.11
26436;BME280;15351;52.408;16.826;2023-04-24T10:56:08;99597.61;;;19.39;63.46
26436;BME280;15351;52.408;16.826;2023-04-24T10:58:43;99597.87;;;19.44;63.41
26436;BME280;15351;52.408;16.826;2023-04-24T11:01:27;99604.31;;;19.58;62.58
26436;BME280;15351;52.408;16.826;2023-04-24T11:05:09;99600.48;;;19.67;62.04
26436;BME280;15351;52.408;16.826;2023-04-24T11:07:29;99601.54;;;19.80;61.53
26436;BME280;15351;52.408;16.826;2023-04-24T11:10:25;99602.36;;;19.81;60.98
26436;BME280;15351;52.408;16.826;2023-04-24T11:13:01;99601.84;;;19.77;60.72
26436;BME280;15351;52.408;16.826;2023-04-24T11:15:28;99601.39;;;19.72;60.89
26436;BME280;15351;52.408;16.826;2023-04-24T11:17:59;99598.48;;;19.69;60.92
26436;BME280;15351;52.408;16.826;2023-04-24T11:20:29;99601.77;;;19.65;61.15
26436;BME280;15351;52.408;16.826;2023-04-24T11:23:19;99602.43;;;19.63;61.04
26436;BME280;15351;52.408;16.826;2023-04-24T11:26:19;99606.52;;;19.62;60.83
26436;BME280;15351;52.408;16.826;2023-04-24T11:29:11;99608.20;;;19.55;59.82
26436;BME280;15351;52.408;16.826;2023-04-24T11:32:14;99608.87;;;19.48;59.71
26436;BME280;15351;52.408;16.826;2023-04-24T11:34:56;99611.21;;;19.43;59.00
26436;BME280;15351;52.408;16.826;2023-04-24T11:37:42;99604.80;;;19.40;59.04
26436;BME280;15351;52.408;16.826;2023-04-24T11:40:41;99607.86;;;19.36;58.65
26436;BME280;15351;52.408;16.826;2023-04-24T11:43:26;99607.86;;;19.32;58.43
26436;BME280;15351;52.408;16.826;2023-04-24T11:46:10;99610.17;;;19.37;58.79
26436;BME280;15351;52.408;16.826;2023-04-24T11:49:30;99603.39;;;19.48;58.73
26436;BME280;15351;52.408;16.826;2023-04-24T11:58:48;99604.91;;;20.07;57.77
26436;BME280;15351;52.408;16.826;2023-04-24T12:01:51;99595.84;;;20.05;57.21
26436;BME280;15351;52.408;16.826;2023-04-24T12:04:18;99603.14;;;20.05;57.01
26436;BME280;15351;52.408;16.826;2023-04-24T12:07:12;99599.39;;;20.03;56.95
26436;BME280;15351;52.408;16.826;2023-04-24T12:10:25;99597.04;;;19.95;56.90
26436;BME280;15351;52.408;16.826;2023-04-24T12:13:14;99593.05;;;19.92;57.39
26436;BME280;15351;52.408;16.826;2023-04-24T12:16:13;99593.96;;;19.90;57.43
26436;BME280;15351;52.408;16.826;2023-04-24T12:18:42;99591.94;;;19.87;57.58
26436;BME280;15351;52.408;16.826;2023-04-24T12:21:22;99593.67;;;19.82;57.86
26436;BME280;15351;52.408;16.826;2023-04-24T12:23:59;99593.84;;;19.70;57.31
26436;BME280;15351;52.408;16.826;2023-04-24T12:26:30;99599.12;;;19.58;57.42
26436;BME280;15351;52.408;16.826;2023-04-24T12:29:07;99595.95;;;19.48;56.77
26436;BME280;15351;52.408;16.826;2023-04-24T12:31:34;99594.11;;;19.39;57.15
26436;BME280;15351;52.408;16.826;2023-04-24T12:34:25;99595.46;;;19.34;57.15
26436;BME280;15351;52.408;16.826;2023-04-24T12:36:52;99596.60;;;19.26;57.48
26436;BME280;15351;52.408;16.826;2023-04-24T12:39:27;99595.93;;;19.22;57.99
26436;BME280;15351;52.408;16.826;2023-04-24T12:42:31;99588.55;;;19.20;58.60
26436;BME280;15351;52.408;16.826;2023-04-24T12:45:12;99580.08;;;19.12;58.67
26436;BME280;15351;52.408;16.826;2023-04-24T12:47:53;99579.28;;;19.08;59.34
26436;BME280;15351;52.408;16.826;2023-04-24T12:50:38;99577.54;;;19.01;59.16
26436;BME280;15351;52.408;16.826;2023-04-24T12:53:15;99577.16;;;18.94;59.96
26436;BME280;15351;52.408;16.826;2023-04-24T12:55:45;99571.13;;;18.87;60.23
26436;BME280;15351;52.408;16.826;2023-04-24T12:58:26;99569.09;;;18.83;60.84
26436;BME280;15351;52.408;16.826;2023-04-24T13:00:53;99566.89;;;18.77;60.92
26436;BME280;15351;52.408;16.826;2023-04-24T13:03:20;99565.49;;;18.74;61.42
26436;BME280;15351;52.408;16.826;2023-04-24T13:05:56;99558.08;;;18.71;61.85
26436;BME280;15351;52.408;16.826;2023-04-24T13:08:25;99563.27;;;18.71;61.79
26436;BME280;15351;52.408;16.826;2023-04-24T13:10:51;99562.89;;;18.71;62.67
26436;BME280;15351;52.408;16.826;2023-04-24T13:13:20;99562.82;;;18.70;63.02
26436;BME280;15351;52.408;16.826;2023-04-24T13:15:48;99560.71;;;18.65;63.60
26436;BME280;15351;52.408;16.826;2023-04-24T13:18:18;99558.39;;;18.58;64.48
26436;BME280;15351;52.408;16.826;2023-04-24T13:21:06;99560.45;;;18.57;64.81
26436;BME280;15351;52.408;16.826;2023-04-24T13:23:36;99560.91;;;18.59;65.11
26436;BME280;15351;52.408;16.826;2023-04-24T13:26:27;99563.94;;;18.60;64.85
26436;BME280;15351;52.408;16.826;2023-04-24T13:29:35;99566.08;;;18.51;63.38
26436;BME280;15351;52.408;16.826;2023-04-24T13:32:53;99560.36;;;18.37;62.73
26436;BME280;15351;52.408;16.826;2023-04-24T13:36:09;99554.71;;;18.25;62.51
26436;BME280;15351;52.408;16.826;2023-04-24T13:38:50;99547.38;;;18.21;62.53
26436;BME280;15351;52.408;16.826;2023-04-24T13:41:17;99548.64;;;18.18;62.45
26436;BME280;15351;52.408;16.826;2023-04-24T13:44:20;99549.64;;;18.14;62.40
26436;BME280;15351;52.408;16.826;2023-04-24T13:47:04;99549.98;;;18.13;61.93
26436;BME280;15351;52.408;16.826;2023-04-24T13:49:46;99548.48;;;18.15;61.82
26436;BME280;15351;52.408;16.826;2023-04-24T13:52:27;99549.17;;;18.17;61.36
26436;BME280;15351;52.408;16.826;2023-04-24T13:54:56;99550.11;;;18.20;61.43
26436;BME280;15351;52.408;16.826;2023-04-24T13:57:55;99552.62;;;18.24;60.96
26436;BME280;15351;52.408;16.826;2023-04-24T14:00:45;99552.09;;;18.21;60.33
26436;BME280;15351;52.408;16.826;2023-04-24T14:03:13;99556.52;;;18.19;60.17
26436;BME280;15351;52.408;16.826;2023-04-24T14:05:40;99553.89;;;18.18;60.19
26436;BME280;15351;52.408;16.826;2023-04-24T14:08:06;99558.85;;;18.18;60.31
26436;BME280;15351;52.408;16.826;2023-04-24T14:10:38;99562.65;;;18.15;60.12
26436;BME280;15351;52.408;16.826;2023-04-24T14:13:12;99560.04;;;18.13;60.10
26436;BME280;15351;52.408;16.826;2023-04-24T14:16:16;99561.02;;;18.12;60.23
26436;BME280;15351;52.408;16.826;2023-04-24T14:18:42;99563.55;;;18.10;59.45
26436;BME280;15351;52.408;16.826;2023-04-24T14:21:08;99562.60;;;18.09;58.36
26436;BME280;15351;52.408;16.826;2023-04-24T14:24:05;99560.66;;;18.08;57.77
26436;BME280;15351;52.408;16.826;2023-04-24T14:26:48;99563.36;;;18.09;57.50
26436;BME280;15351;52.408;16.826;2023-04-24T14:29:16;99565.35;;;18.10;57.10
26436;BME280;15351;52.408;16.826;2023-04-24T14:31:49;99570.41;;;18.06;56.64
26436;BME280;15351;52.408;16.826;2023-04-24T14:34:42;99570.27;;;18.02;56.80
26436;BME280;15351;52.408;16.826;2023-04-24T14:37:11;99562.92;;;17.93;56.61
26436;BME280;15351;52.408;16.826;2023-04-24T14:39:40;99573.86;;;17.94;56.87
26436;BME280;15351;52.408;16.826;2023-04-24T14:42:19;99577.16;;;17.88;56.94
26436;BME280;15351;52.408;16.826;2023-04-24T14:44:46;99576.41;;;17.80;57.25
26436;BME280;15351;52.408;16.826;2023-04-24T14:47:15;99575.45;;;17.72;57.74
26436;BME280;15351;52.408;16.826;2023-04-24T14:49:43;99578.17;;;17.69;58.66
26436;BME280;15351;52.408;16.826;2023-04-24T14:52:15;99584.42;;;17.64;59.06
26436;BME280;15351;52.408;16.826;2023-04-24T14:55:18;99588.63;;;17.64;59.62
26436;BME280;15351;52.408;16.826;2023-04-24T14:57:49;99584.69;;;17.61;59.99
26436;BME280;15351;52.408;16.826;2023-04-24T15:00:20;99589.65;;;17.61;60.63
26436;BME280;15351;52.408;16.826;2023-04-24T15:03:30;99589.78;;;17.57;60.82
26436;BME280;15351;52.408;16.826;2023-04-24T15:06:17;99590.23;;;17.51;61.55
26436;BME280;15351;52.408;16.826;2023-04-24T15:09:09;99591.63;;;17.45;61.86
26436;BME280;15351;52.408;16.826;2023-04-24T15:11:39;99597.27;;;17.41;62.35
26436;BME280;15351;52.408;16.826;2023-04-24T15:14:10;99596.33;;;17.38;62.72
26436;BME280;15351;52.408;16.826;2023-04-24T15:16:43;99594.99;;;17.33;63.18
26436;BME280;15351;52.408;16.826;2023-04-24T15:19:13;99598.58;;;17.30;63.71
26436;BME280;15351;52.408;16.826;2023-04-24T15:21:40;99597.31;;;17.24;64.09
26436;BME280;15351;52.408;16.826;2023-04-24T15:24:17;99598.83;;;17.20;64.27
26436;BME280;15351;52.408;16.826;2023-04-24T15:26:59;99592.72;;;17.20;64.88
26436;BME280;15351;52.408;16.826;2023-04-24T15:29:28;99590.51;;;17.22;64.83